METAR Data
IDs: Format: Raw Decoded Include TAF

Data at: 1537 UTC 27 Nov 2021

METAR for:KSPB (Scappoose Ind Airpar, OR, US)
Text:KSPB 271518Z AUTO 00000KT 2 1/2SM BR OVC004 11/10 A3012 RMK AO2 T01060100
Temperature: 10.6°C ( 51°F)
Dewpoint: 10.0°C ( 50°F) [RH = 96%]
Pressure (altimeter):30.12 inches Hg (1020.1 mb)
Winds:calm
Visibility: 2.50 sm ( 4.02 km)
Ceiling:400 feet AGL
Clouds: overcast cloud deck at 400 feet AGL
Weather:BR (mist)
QC Flag:automated observation with no human augmentation